createdAt,value
2023-04-29T00:02:00.089Z,100.00
2023-04-29T00:07:03.034Z,100.00
2023-04-29T00:12:05.948Z,100.00
2023-04-29T00:17:09.012Z,100.00
2023-04-29T00:22:11.747Z,100.00
2023-04-29T00:27:14.380Z,100.00
2023-04-29T00:32:17.000Z,100.00
2023-04-29T00:37:19.741Z,100.00
2023-04-29T00:42:22.618Z,100.00
2023-04-29T00:47:25.345Z,100.00
2023-04-29T00:52:31.788Z,100.00
2023-04-29T00:57:34.805Z,100.00
2023-04-29T01:02:38.800Z,100.00
2023-04-29T01:08:06.493Z,100.00
2023-04-29T01:13:29.692Z,100.00
2023-04-29T01:18:37.913Z,100.00
2023-04-29T01:23:41.348Z,100.00
2023-04-29T01:28:51.111Z,100.00
2023-04-29T01:34:09.045Z,100.00
2023-04-29T01:39:37.947Z,100.00
2023-04-29T01:44:49.556Z,100.00
2023-04-29T01:49:55.827Z,100.00
2023-04-29T01:54:58.797Z,100.00
2023-04-29T02:00:09.214Z,100.00
2023-04-29T02:05:22.627Z,100.00
2023-04-29T02:10:32.218Z,100.00
2023-04-29T02:15:52.858Z,100.00
2023-04-29T02:21:01.709Z,100.00
2023-04-29T02:26:10.040Z,100.00
2023-04-29T02:31:13.327Z,100.00
2023-04-29T02:36:16.230Z,100.00
2023-04-29T02:41:19.671Z,100.00
2023-04-29T02:46:24.468Z,100.00
2023-04-29T02:51:28.208Z,100.00
2023-04-29T02:56:31.173Z,100.00
2023-04-29T03:01:33.989Z,100.00
2023-04-29T03:06:36.951Z,100.00
2023-04-29T03:11:39.663Z,100.00
2023-04-29T03:16:42.935Z,100.00
2023-04-29T03:21:45.650Z,100.00
2023-04-29T03:26:49.485Z,100.00
2023-04-29T03:31:57.002Z,100.00
2023-04-29T03:36:59.912Z,100.00
2023-04-29T03:42:04.941Z,100.00
2023-04-29T03:47:08.926Z,100.00
2023-04-29T03:52:12.734Z,100.00
2023-04-29T03:57:15.995Z,100.00
2023-04-29T04:02:19.808Z,100.00
2023-04-29T04:07:22.764Z,100.00
2023-04-29T04:12:44.525Z,100.00
2023-04-29T04:17:47.544Z,100.00
2023-04-29T04:22:50.894Z,100.00
2023-04-29T04:27:58.964Z,100.00
2023-04-29T04:33:18.811Z,100.00
2023-04-29T04:38:25.493Z,99.86
2023-04-29T04:43:28.648Z,99.47
2023-04-29T04:48:31.694Z,99.86
2023-04-29T04:53:34.545Z,99.53
2023-04-29T04:58:42.278Z,98.98
2023-04-29T05:03:46.299Z,98.66
2023-04-29T05:08:49.476Z,98.39
2023-04-29T05:13:52.685Z,97.38
2023-04-29T05:18:55.708Z,96.37
2023-04-29T05:24:02.081Z,96.73
2023-04-29T05:29:05.652Z,95.76
2023-04-29T05:34:16.003Z,95.15
2023-04-29T05:39:19.056Z,94.31
2023-04-29T05:44:27.244Z,93.67
2023-04-29T05:49:30.037Z,93.27
2023-04-29T05:54:33.892Z,92.45
2023-04-29T05:59:36.806Z,92.57
2023-04-29T06:04:41.910Z,92.36
2023-04-29T06:10:11.127Z,91.15
2023-04-29T06:15:16.689Z,90.01
2023-04-29T06:20:19.871Z,89.53
2023-04-29T06:25:22.676Z,89.25
2023-04-29T06:30:27.365Z,87.09
2023-04-29T06:35:30.784Z,85.25
2023-04-29T06:41:02.776Z,85.82
2023-04-29T06:46:08.690Z,85.60
2023-04-29T06:51:16.346Z,83.87
2023-04-29T06:56:19.292Z,84.27
2023-04-29T07:01:23.549Z,83.18
2023-04-29T07:06:27.106Z,81.92
2023-04-29T07:11:31.864Z,80.25
2023-04-29T07:16:34.614Z,79.24
2023-04-29T07:21:37.553Z,78.63
2023-04-29T07:26:40.969Z,77.34
2023-04-29T07:31:43.665Z,77.89
2023-04-29T07:36:46.602Z,78.26
2023-04-29T07:41:49.389Z,76.34
2023-04-29T07:46:52.208Z,73.85
2023-04-29T07:51:55.027Z,71.83
2023-04-29T07:57:01.588Z,70.47
2023-04-29T08:02:04.440Z,70.41
2023-04-29T08:07:07.679Z,69.52
2023-04-29T08:12:12.119Z,68.74
2023-04-29T08:17:16.679Z,66.91
2023-04-29T08:22:22.346Z,64.36
2023-04-29T08:27:25.009Z,63.90
2023-04-29T08:32:27.669Z,63.86
2023-04-29T08:37:30.523Z,64.24
2023-04-29T08:42:36.860Z,64.57
2023-04-29T08:47:40.828Z,63.09
2023-04-29T08:52:43.641Z,62.85
2023-04-29T08:57:50.421Z,60.33
2023-04-29T09:02:57.148Z,57.86
2023-04-29T09:08:03.340Z,55.91
2023-04-29T09:13:06.208Z,54.07
2023-04-29T09:18:08.936Z,51.43
2023-04-29T09:23:11.902Z,49.73
2023-04-29T09:28:17.826Z,50.24
2023-04-29T09:33:20.694Z,51.40
2023-04-29T09:38:23.535Z,48.96
2023-04-29T09:43:26.462Z,47.68
2023-04-29T09:48:33.849Z,47.97
2023-04-29T09:53:38.349Z,48.13
2023-04-29T09:58:41.493Z,48.32
2023-04-29T10:03:45.184Z,48.62
2023-04-29T10:08:49.153Z,47.75
2023-04-29T10:13:52.776Z,46.21
2023-04-29T10:18:56.961Z,46.62
2023-04-29T10:24:02.275Z,44.65
2023-04-29T10:29:08.491Z,43.54
2023-04-29T10:34:13.147Z,42.81
2023-04-29T10:39:27.322Z,42.25
2023-04-29T10:44:29.961Z,42.46
2023-04-29T10:49:35.928Z,39.97
2023-04-29T10:54:39.977Z,39.08
2023-04-29T10:59:42.725Z,41.63
2023-04-29T11:05:08.512Z,41.77
2023-04-29T11:10:13.567Z,41.04
2023-04-29T11:15:18.580Z,40.70
2023-04-29T11:20:22.893Z,39.58
2023-04-29T11:25:26.217Z,38.74
2023-04-29T11:30:30.251Z,38.27
2023-04-29T11:35:33.055Z,37.88
2023-04-29T11:40:35.815Z,37.48
2023-04-29T11:45:40.566Z,37.13
2023-04-29T11:50:43.640Z,37.11
2023-04-29T11:55:47.820Z,36.69
2023-04-29T12:00:52.049Z,36.86
2023-04-29T12:05:56.501Z,34.96
2023-04-29T12:11:00.531Z,35.18
2023-04-29T12:16:04.370Z,34.57
2023-04-29T12:21:07.652Z,33.97
2023-04-29T12:26:10.410Z,33.88
2023-04-29T12:31:15.735Z,33.22
2023-04-29T12:36:19.291Z,33.55
2023-04-29T12:41:37.168Z,34.02
2023-04-29T12:46:41.875Z,34.25
2023-04-29T12:51:45.030Z,33.78
2023-04-29T12:56:49.558Z,35.02
2023-04-29T13:01:52.605Z,34.53
2023-04-29T13:07:00.350Z,34.04
2023-04-29T13:12:03.087Z,33.38
2023-04-29T13:17:06.488Z,33.81
2023-04-29T13:22:09.417Z,33.47
2023-04-29T13:27:12.121Z,32.56
2023-04-29T13:32:17.982Z,31.30
2023-04-29T13:37:21.157Z,31.11
2023-04-29T13:42:26.905Z,31.57
2023-04-29T13:47:31.578Z,31.51
2023-04-29T13:58:31.091Z,31.00
2023-04-29T14:03:03.555Z,32.10
2023-04-29T14:08:06.882Z,32.17
2023-04-29T14:13:09.759Z,31.75
2023-04-29T14:18:12.493Z,32.53
2023-04-29T14:23:15.764Z,32.64
2023-04-29T14:28:18.463Z,32.29
2023-04-29T14:33:21.304Z,32.11
2023-04-29T14:38:24.169Z,32.59
2023-04-29T14:43:27.073Z,32.71
2023-04-29T14:48:30.153Z,32.55
2023-04-29T14:53:32.957Z,32.55
2023-04-29T14:58:35.682Z,31.59
2023-04-29T15:03:43.567Z,32.17
2023-04-29T15:08:47.936Z,32.01
2023-04-29T15:13:50.787Z,31.82
2023-04-29T15:18:54.215Z,32.03
2023-04-29T15:23:57.468Z,32.55
2023-04-29T15:29:00.089Z,32.70
2023-04-29T15:34:02.816Z,32.96
2023-04-29T15:39:05.488Z,33.36
2023-04-29T15:44:08.202Z,33.51
2023-04-29T15:49:12.415Z,33.42
2023-04-29T15:54:15.096Z,34.04
2023-04-29T15:59:17.924Z,34.75
2023-04-29T16:04:20.679Z,34.76
2023-04-29T16:09:23.390Z,35.18
2023-04-29T16:14:26.088Z,35.49
2023-04-29T16:19:28.916Z,35.70
2023-04-29T16:24:31.720Z,36.25
2023-04-29T16:29:34.315Z,36.79
2023-04-29T16:34:37.563Z,37.48
2023-04-29T16:39:41.147Z,37.94
2023-04-29T16:44:43.803Z,38.69
2023-04-29T16:49:47.253Z,38.69
2023-04-29T16:54:49.907Z,39.30
2023-04-29T16:59:52.796Z,40.43
2023-04-29T17:04:55.769Z,42.33
2023-04-29T17:09:58.654Z,44.21
2023-04-29T17:15:01.481Z,46.13
2023-04-29T17:20:07.515Z,46.63
2023-04-29T17:25:19.322Z,47.33
2023-04-29T17:30:22.927Z,48.78
2023-04-29T17:35:26.213Z,50.28
2023-04-29T17:40:28.800Z,51.51
2023-04-29T17:45:31.708Z,52.42
2023-04-29T17:50:34.412Z,52.98
2023-04-29T17:55:41.257Z,53.69
2023-04-29T18:00:46.292Z,54.15
2023-04-29T18:05:48.985Z,54.90
2023-04-29T18:10:51.998Z,56.05
2023-04-29T18:15:55.060Z,56.16
2023-04-29T18:20:57.763Z,57.25
2023-04-29T18:26:00.661Z,57.92
2023-04-29T18:31:03.306Z,59.11
2023-04-29T18:36:06.630Z,60.00
2023-04-29T18:41:09.321Z,59.95
2023-04-29T18:46:13.802Z,60.98
2023-04-29T18:51:17.023Z,61.64
2023-04-29T18:56:19.785Z,61.76
2023-04-29T19:01:23.028Z,62.95
2023-04-29T19:06:25.787Z,63.74
2023-04-29T19:11:28.660Z,64.99
2023-04-29T19:16:31.584Z,65.35
2023-04-29T19:21:34.528Z,65.39
2023-04-29T19:26:39.501Z,65.11
2023-04-29T19:31:44.079Z,64.80
2023-04-29T19:36:46.985Z,64.28
2023-04-29T19:41:49.554Z,65.03
2023-04-29T19:46:53.705Z,65.31
2023-04-29T19:51:56.793Z,65.18
2023-04-29T19:56:59.381Z,66.26
2023-04-29T20:02:02.011Z,66.49
2023-04-29T20:07:04.785Z,67.01
2023-04-29T20:12:07.545Z,67.49
2023-04-29T20:17:10.622Z,68.27
2023-04-29T20:22:13.663Z,68.56
2023-04-29T20:27:16.590Z,69.22
2023-04-29T20:32:19.335Z,69.30
2023-04-29T20:37:22.196Z,68.67
2023-04-29T20:42:24.899Z,69.39
2023-04-29T20:47:28.515Z,69.65
2023-04-29T20:52:31.552Z,69.60
2023-04-29T20:57:34.302Z,69.49
2023-04-29T21:02:37.062Z,69.45
2023-04-29T21:07:39.713Z,68.50
2023-04-29T21:12:42.683Z,68.39
2023-04-29T21:17:45.536Z,68.90
2023-04-29T21:22:48.180Z,69.03
2023-04-29T21:27:50.787Z,69.79
2023-04-29T21:32:54.108Z,70.30
2023-04-29T21:37:57.634Z,70.37
2023-04-29T21:43:00.696Z,70.26
2023-04-29T21:48:25.332Z,69.97
2023-04-29T21:53:28.031Z,70.32
2023-04-29T21:58:30.707Z,70.79
2023-04-29T22:03:33.365Z,70.80
2023-04-29T22:08:36.114Z,71.03
2023-04-29T22:13:38.841Z,71.35
2023-04-29T22:18:41.603Z,71.83
2023-04-29T22:23:44.682Z,72.35
2023-04-29T22:28:47.374Z,72.38
2023-04-29T22:33:50.051Z,72.57
2023-04-29T22:38:52.742Z,72.40
2023-04-29T22:43:57.687Z,72.74
2023-04-29T22:49:00.434Z,72.85
2023-04-29T22:54:03.273Z,73.15
2023-04-29T22:59:05.872Z,73.50
2023-04-29T23:04:08.533Z,74.44
2023-04-29T23:09:11.854Z,74.12
2023-04-29T23:14:14.607Z,74.55
2023-04-29T23:19:17.348Z,75.42
2023-04-29T23:24:20.019Z,75.67
2023-04-29T23:29:22.695Z,76.43
2023-04-29T23:34:25.321Z,76.80
2023-04-29T23:39:28.582Z,77.12
2023-04-29T23:44:31.100Z,77.51
2023-04-29T23:49:34.089Z,77.75
2023-04-29T23:54:36.785Z,77.71
2023-04-29T23:59:39.338Z,78.16
